sensor_id;sensor_type;location;lat;lon;timestamp;P1;durP1;ratioP1;P2;durP2;ratioP2
50517;SDS011;37075;44.084;2.962;2024-01-16T00:00:43;10.95;;;6.30;;
50517;SDS011;37075;44.084;2.962;2024-01-16T00:03:29;6.53;;;3.85;;
50517;SDS011;37075;44.084;2.962;2024-01-16T00:06:17;13.48;;;4.20;;
50517;SDS011;37075;44.084;2.962;2024-01-16T00:09:03;7.30;;;5.68;;
50517;SDS011;37075;44.084;2.962;2024-01-16T00:11:50;8.15;;;4.47;;
50517;SDS011;37075;44.084;2.962;2024-01-16T00:14:36;7.85;;;3.10;;
50517;SDS011;37075;44.084;2.962;2024-01-16T00:17:22;6.25;;;3.40;;
50517;SDS011;37075;44.084;2.962;2024-01-16T00:20:09;8.15;;;3.85;;
50517;SDS011;37075;44.084;2.962;2024-01-16T00:22:56;5.18;;;2.67;;
50517;SDS011;37075;44.084;2.962;2024-01-16T00:25:42;5.93;;;3.28;;
50517;SDS011;37075;44.084;2.962;2024-01-16T00:28:30;6.63;;;3.92;;
50517;SDS011;37075;44.084;2.962;2024-01-16T00:31:17;5.85;;;3.72;;
50517;SDS011;37075;44.084;2.962;2024-01-16T00:34:04;7.68;;;3.60;;
50517;SDS011;37075;44.084;2.962;2024-01-16T00:36:50;6.60;;;3.15;;
50517;SDS011;37075;44.084;2.962;2024-01-16T00:39:37;6.45;;;3.20;;
50517;SDS011;37075;44.084;2.962;2024-01-16T00:42:23;7.97;;;4.50;;
50517;SDS011;37075;44.084;2.962;2024-01-16T00:45:09;7.78;;;3.72;;
50517;SDS011;37075;44.084;2.962;2024-01-16T00:47:56;7.22;;;3.42;;
50517;SDS011;37075;44.084;2.962;2024-01-16T00:50:41;7.20;;;4.53;;
50517;SDS011;37075;44.084;2.962;2024-01-16T00:53:27;6.07;;;3.50;;
50517;SDS011;37075;44.084;2.962;2024-01-16T00:56:15;7.55;;;4.28;;
50517;SDS011;37075;44.084;2.962;2024-01-16T00:59:00;6.25;;;3.53;;
50517;SDS011;37075;44.084;2.962;2024-01-16T01:01:47;8.05;;;2.63;;
50517;SDS011;37075;44.084;2.962;2024-01-16T01:04:32;5.00;;;2.80;;
50517;SDS011;37075;44.084;2.962;2024-01-16T01:07:19;6.60;;;4.03;;
50517;SDS011;37075;44.084;2.962;2024-01-16T01:10:05;5.35;;;3.17;;
50517;SDS011;37075;44.084;2.962;2024-01-16T01:12:53;5.07;;;4.05;;
50517;SDS011;37075;44.084;2.962;2024-01-16T01:15:39;5.00;;;3.50;;
50517;SDS011;37075;44.084;2.962;2024-01-16T01:18:25;7.13;;;3.15;;
50517;SDS011;37075;44.084;2.962;2024-01-16T01:21:11;10.63;;;4.75;;
50517;SDS011;37075;44.084;2.962;2024-01-16T01:23:56;5.88;;;3.53;;
50517;SDS011;37075;44.084;2.962;2024-01-16T01:26:42;8.88;;;4.22;;
50517;SDS011;37075;44.084;2.962;2024-01-16T01:29:30;8.55;;;3.80;;
50517;SDS011;37075;44.084;2.962;2024-01-16T01:32:16;7.32;;;4.70;;
50517;SDS011;37075;44.084;2.962;2024-01-16T01:35:02;9.02;;;4.10;;
50517;SDS011;37075;44.084;2.962;2024-01-16T01:37:48;4.55;;;3.60;;
50517;SDS011;37075;44.084;2.962;2024-01-16T01:40:34;7.55;;;3.83;;
50517;SDS011;37075;44.084;2.962;2024-01-16T01:43:20;5.55;;;3.15;;
50517;SDS011;37075;44.084;2.962;2024-01-16T01:46:13;7.30;;;3.60;;
50517;SDS011;37075;44.084;2.962;2024-01-16T01:49:02;5.35;;;3.28;;
50517;SDS011;37075;44.084;2.962;2024-01-16T01:51:49;9.45;;;4.13;;
50517;SDS011;37075;44.084;2.962;2024-01-16T01:54:36;6.85;;;4.03;;
50517;SDS011;37075;44.084;2.962;2024-01-16T01:57:23;6.97;;;3.20;;
50517;SDS011;37075;44.084;2.962;2024-01-16T02:00:10;3.88;;;2.92;;
50517;SDS011;37075;44.084;2.962;2024-01-16T02:03:01;5.00;;;3.50;;
50517;SDS011;37075;44.084;2.962;2024-01-16T02:05:47;6.28;;;2.75;;
50517;SDS011;37075;44.084;2.962;2024-01-16T02:08:34;2.97;;;2.53;;
50517;SDS011;37075;44.084;2.962;2024-01-16T02:11:21;4.22;;;2.58;;
50517;SDS011;37075;44.084;2.962;2024-01-16T02:14:06;4.50;;;2.70;;
50517;SDS011;37075;44.084;2.962;2024-01-16T02:16:53;9.60;;;3.65;;
50517;SDS011;37075;44.084;2.962;2024-01-16T02:19:40;5.13;;;3.45;;
50517;SDS011;37075;44.084;2.962;2024-01-16T02:22:26;3.13;;;1.98;;
50517;SDS011;37075;44.084;2.962;2024-01-16T02:25:15;5.47;;;3.60;;
50517;SDS011;37075;44.084;2.962;2024-01-16T02:28:01;9.10;;;3.67;;
50517;SDS011;37075;44.084;2.962;2024-01-16T02:30:48;7.13;;;3.65;;
50517;SDS011;37075;44.084;2.962;2024-01-16T02:33:34;12.13;;;3.35;;
50517;SDS011;37075;44.084;2.962;2024-01-16T02:36:20;5.80;;;3.00;;
50517;SDS011;37075;44.084;2.962;2024-01-16T02:39:05;6.22;;;3.30;;
50517;SDS011;37075;44.084;2.962;2024-01-16T02:41:53;7.63;;;3.30;;
50517;SDS011;37075;44.084;2.962;2024-01-16T02:44:40;5.55;;;3.60;;
50517;SDS011;37075;44.084;2.962;2024-01-16T02:47:25;6.15;;;3.78;;
50517;SDS011;37075;44.084;2.962;2024-01-16T02:50:11;6.68;;;3.60;;
50517;SDS011;37075;44.084;2.962;2024-01-16T02:52:57;7.05;;;3.80;;
50517;SDS011;37075;44.084;2.962;2024-01-16T02:55:43;4.25;;;2.42;;
50517;SDS011;37075;44.084;2.962;2024-01-16T02:58:31;9.73;;;4.75;;
50517;SDS011;37075;44.084;2.962;2024-01-16T03:01:17;7.57;;;3.35;;
50517;SDS011;37075;44.084;2.962;2024-01-16T03:04:03;6.10;;;4.13;;
50517;SDS011;37075;44.084;2.962;2024-01-16T03:06:49;6.60;;;3.67;;
50517;SDS011;37075;44.084;2.962;2024-01-16T03:09:35;5.38;;;2.70;;
50517;SDS011;37075;44.084;2.962;2024-01-16T03:12:22;6.25;;;3.03;;
50517;SDS011;37075;44.084;2.962;2024-01-16T03:15:09;7.68;;;3.25;;
50517;SDS011;37075;44.084;2.962;2024-01-16T03:17:56;5.38;;;3.30;;
50517;SDS011;37075;44.084;2.962;2024-01-16T03:20:42;8.25;;;3.15;;
50517;SDS011;37075;44.084;2.962;2024-01-16T03:23:28;5.47;;;2.40;;
50517;SDS011;37075;44.084;2.962;2024-01-16T03:26:14;5.00;;;2.92;;
50517;SDS011;37075;44.084;2.962;2024-01-16T03:29:00;4.07;;;2.63;;
50517;SDS011;37075;44.084;2.962;2024-01-16T03:31:48;8.27;;;3.85;;
50517;SDS011;37075;44.084;2.962;2024-01-16T03:34:34;3.97;;;3.08;;
50517;SDS011;37075;44.084;2.962;2024-01-16T03:37:20;3.70;;;2.72;;
50517;SDS011;37075;44.084;2.962;2024-01-16T03:40:06;5.18;;;2.58;;
50517;SDS011;37075;44.084;2.962;2024-01-16T03:42:53;4.55;;;2.65;;
50517;SDS011;37075;44.084;2.962;2024-01-16T03:45:40;6.75;;;2.97;;
50517;SDS011;37075;44.084;2.962;2024-01-16T03:48:27;3.75;;;2.55;;
50517;SDS011;37075;44.084;2.962;2024-01-16T03:51:13;9.60;;;3.72;;
50517;SDS011;37075;44.084;2.962;2024-01-16T03:54:02;11.50;;;4.80;;
50517;SDS011;37075;44.084;2.962;2024-01-16T03:56:48;8.35;;;4.75;;
50517;SDS011;37075;44.084;2.962;2024-01-16T03:59:36;6.28;;;4.95;;
50517;SDS011;37075;44.084;2.962;2024-01-16T04:02:23;11.60;;;4.72;;
50517;SDS011;37075;44.084;2.962;2024-01-16T04:05:10;12.32;;;6.50;;
50517;SDS011;37075;44.084;2.962;2024-01-16T04:07:56;13.55;;;4.80;;
50517;SDS011;37075;44.084;2.962;2024-01-16T04:10:42;7.85;;;4.82;;
50517;SDS011;37075;44.084;2.962;2024-01-16T04:13:28;10.88;;;5.80;;
50517;SDS011;37075;44.084;2.962;2024-01-16T04:16:14;13.35;;;4.82;;
50517;SDS011;37075;44.084;2.962;2024-01-16T04:19:00;8.57;;;4.85;;
50517;SDS011;37075;44.084;2.962;2024-01-16T04:21:48;8.32;;;3.83;;
50517;SDS011;37075;44.084;2.962;2024-01-16T04:24:34;6.35;;;3.92;;
50517;SDS011;37075;44.084;2.962;2024-01-16T04:27:20;6.07;;;3.95;;
50517;SDS011;37075;44.084;2.962;2024-01-16T04:30:06;4.70;;;3.00;;
50517;SDS011;37075;44.084;2.962;2024-01-16T04:32:53;6.25;;;4.13;;
50517;SDS011;37075;44.084;2.962;2024-01-16T04:35:39;6.82;;;3.67;;
50517;SDS011;37075;44.084;2.962;2024-01-16T04:38:26;6.43;;;3.10;;
50517;SDS011;37075;44.084;2.962;2024-01-16T04:41:12;5.95;;;3.40;;
50517;SDS011;37075;44.084;2.962;2024-01-16T04:43:58;8.73;;;4.03;;
50517;SDS011;37075;44.084;2.962;2024-01-16T04:46:45;8.55;;;3.05;;
50517;SDS011;37075;44.084;2.962;2024-01-16T04:49:30;4.30;;;2.03;;
50517;SDS011;37075;44.084;2.962;2024-01-16T04:52:16;9.05;;;3.40;;
50517;SDS011;37075;44.084;2.962;2024-01-16T04:55:04;7.53;;;3.15;;
50517;SDS011;37075;44.084;2.962;2024-01-16T04:57:51;5.70;;;3.22;;
50517;SDS011;37075;44.084;2.962;2024-01-16T05:00:37;6.93;;;3.05;;
50517;SDS011;37075;44.084;2.962;2024-01-16T05:03:23;4.47;;;2.47;;
50517;SDS011;37075;44.084;2.962;2024-01-16T05:06:12;8.05;;;3.55;;
50517;SDS011;37075;44.084;2.962;2024-01-16T05:08:59;6.18;;;2.78;;
50517;SDS011;37075;44.084;2.962;2024-01-16T05:11:49;3.47;;;2.53;;
50517;SDS011;37075;44.084;2.962;2024-01-16T05:14:34;4.00;;;2.93;;
50517;SDS011;37075;44.084;2.962;2024-01-16T05:17:20;6.13;;;3.90;;
50517;SDS011;37075;44.084;2.962;2024-01-16T05:20:07;5.30;;;3.25;;
50517;SDS011;37075;44.084;2.962;2024-01-16T05:22:55;5.88;;;3.15;;
50517;SDS011;37075;44.084;2.962;2024-01-16T05:25:41;3.78;;;2.20;;
50517;SDS011;37075;44.084;2.962;2024-01-16T05:28:29;4.53;;;2.65;;
50517;SDS011;37075;44.084;2.962;2024-01-16T05:31:15;4.88;;;2.65;;
50517;SDS011;37075;44.084;2.962;2024-01-16T05:34:01;3.83;;;2.17;;
50517;SDS011;37075;44.084;2.962;2024-01-16T05:36:47;3.00;;;1.95;;
50517;SDS011;37075;44.084;2.962;2024-01-16T05:39:33;3.75;;;2.65;;
50517;SDS011;37075;44.084;2.962;2024-01-16T05:42:18;4.78;;;3.90;;
50517;SDS011;37075;44.084;2.962;2024-01-16T05:45:07;5.68;;;3.53;;
50517;SDS011;37075;44.084;2.962;2024-01-16T05:47:53;3.90;;;2.10;;
50517;SDS011;37075;44.084;2.962;2024-01-16T05:50:40;3.60;;;1.85;;
50517;SDS011;37075;44.084;2.962;2024-01-16T05:53:27;3.75;;;2.50;;
50517;SDS011;37075;44.084;2.962;2024-01-16T05:56:13;5.95;;;2.35;;
50517;SDS011;37075;44.084;2.962;2024-01-16T05:58:59;4.55;;;2.40;;
50517;SDS011;37075;44.084;2.962;2024-01-16T06:01:46;4.22;;;2.08;;
50517;SDS011;37075;44.084;2.962;2024-01-16T06:04:34;3.10;;;1.60;;
50517;SDS011;37075;44.084;2.962;2024-01-16T06:07:20;7.40;;;4.00;;
50517;SDS011;37075;44.084;2.962;2024-01-16T06:10:07;2.58;;;1.60;;
50517;SDS011;37075;44.084;2.962;2024-01-16T06:12:54;2.28;;;2.03;;
50517;SDS011;37075;44.084;2.962;2024-01-16T06:15:39;2.63;;;2.10;;
50517;SDS011;37075;44.084;2.962;2024-01-16T06:18:27;2.55;;;2.05;;
50517;SDS011;37075;44.084;2.962;2024-01-16T06:21:14;1.45;;;1.20;;
50517;SDS011;37075;44.084;2.962;2024-01-16T06:24:01;1.65;;;1.30;;
50517;SDS011;37075;44.084;2.962;2024-01-16T06:26:47;2.13;;;1.52;;
50517;SDS011;37075;44.084;2.962;2024-01-16T06:29:33;2.10;;;1.33;;
50517;SDS011;37075;44.084;2.962;2024-01-16T06:32:19;7.10;;;1.27;;
50517;SDS011;37075;44.084;2.962;2024-01-16T06:35:07;8.73;;;2.85;;
50517;SDS011;37075;44.084;2.962;2024-01-16T06:37:53;3.75;;;2.30;;
50517;SDS011;37075;44.084;2.962;2024-01-16T06:40:39;12.32;;;4.65;;
50517;SDS011;37075;44.084;2.962;2024-01-16T06:43:25;3.83;;;2.80;;
50517;SDS011;37075;44.084;2.962;2024-01-16T06:46:10;13.13;;;5.15;;
50517;SDS011;37075;44.084;2.962;2024-01-16T06:48:57;12.20;;;5.30;;
50517;SDS011;37075;44.084;2.962;2024-01-16T06:51:44;18.67;;;7.18;;
50517;SDS011;37075;44.084;2.962;2024-01-16T06:54:30;8.43;;;3.90;;
50517;SDS011;37075;44.084;2.962;2024-01-16T06:57:16;8.05;;;3.42;;
50517;SDS011;37075;44.084;2.962;2024-01-16T07:00:02;4.47;;;2.95;;
50517;SDS011;37075;44.084;2.962;2024-01-16T07:02:51;4.93;;;2.65;;
50517;SDS011;37075;44.084;2.962;2024-01-16T07:05:38;3.15;;;2.05;;
50517;SDS011;37075;44.084;2.962;2024-01-16T07:08:26;4.07;;;1.73;;
50517;SDS011;37075;44.084;2.962;2024-01-16T07:11:12;4.90;;;2.97;;
50517;SDS011;37075;44.084;2.962;2024-01-16T07:13:59;7.57;;;2.92;;
50517;SDS011;37075;44.084;2.962;2024-01-16T07:16:45;8.80;;;3.50;;
50517;SDS011;37075;44.084;2.962;2024-01-16T07:19:30;5.68;;;2.58;;
50517;SDS011;37075;44.084;2.962;2024-01-16T07:22:16;4.55;;;2.60;;
50517;SDS011;37075;44.084;2.962;2024-01-16T07:25:04;4.72;;;2.63;;
50517;SDS011;37075;44.084;2.962;2024-01-16T07:27:50;6.28;;;3.30;;
50517;SDS011;37075;44.084;2.962;2024-01-16T07:30:36;3.35;;;1.92;;
50517;SDS011;37075;44.084;2.962;2024-01-16T07:33:22;14.20;;;2.90;;
50517;SDS011;37075;44.084;2.962;2024-01-16T07:36:08;4.65;;;2.40;;
50517;SDS011;37075;44.084;2.962;2024-01-16T07:38:54;2.83;;;2.03;;
50517;SDS011;37075;44.084;2.962;2024-01-16T07:41:41;4.72;;;2.42;;
50517;SDS011;37075;44.084;2.962;2024-01-16T07:44:28;2.22;;;1.23;;
50517;SDS011;37075;44.084;2.962;2024-01-16T07:47:13;3.22;;;1.55;;
50517;SDS011;37075;44.084;2.962;2024-01-16T07:49:59;3.22;;;1.45;;
50517;SDS011;37075;44.084;2.962;2024-01-16T07:52:46;1.85;;;1.40;;
50517;SDS011;37075;44.084;2.962;2024-01-16T07:55:31;4.03;;;2.25;;
50517;SDS011;37075;44.084;2.962;2024-01-16T07:58:19;2.05;;;1.08;;
50517;SDS011;37075;44.084;2.962;2024-01-16T08:01:05;2.25;;;1.65;;
50517;SDS011;37075;44.084;2.962;2024-01-16T08:03:51;2.40;;;1.05;;
50517;SDS011;37075;44.084;2.962;2024-01-16T08:06:37;2.67;;;1.33;;
50517;SDS011;37075;44.084;2.962;2024-01-16T08:09:23;1.73;;;1.17;;
50517;SDS011;37075;44.084;2.962;2024-01-16T08:12:09;1.92;;;1.10;;
50517;SDS011;37075;44.084;2.962;2024-01-16T08:14:57;1.77;;;1.38;;
50517;SDS011;37075;44.084;2.962;2024-01-16T08:17:43;1.98;;;1.00;;
50517;SDS011;37075;44.084;2.962;2024-01-16T08:20:29;1.73;;;1.00;;
50517;SDS011;37075;44.084;2.962;2024-01-16T08:23:15;1.10;;;0.73;;
50517;SDS011;37075;44.084;2.962;2024-01-16T08:26:01;3.08;;;1.25;;
50517;SDS011;37075;44.084;2.962;2024-01-16T08:28:47;1.38;;;1.27;;
50517;SDS011;37075;44.084;2.962;2024-01-16T08:31:34;1.85;;;1.23;;
50517;SDS011;37075;44.084;2.962;2024-01-16T08:34:20;1.97;;;1.10;;
50517;SDS011;37075;44.084;2.962;2024-01-16T08:37:06;3.05;;;0.70;;
50517;SDS011;37075;44.084;2.962;2024-01-16T08:39:52;1.85;;;1.48;;
50517;SDS011;37075;44.084;2.962;2024-01-16T08:42:39;1.55;;;0.63;;
50517;SDS011;37075;44.084;2.962;2024-01-16T08:45:24;1.40;;;1.30;;
50517;SDS011;37075;44.084;2.962;2024-01-16T08:48:13;1.50;;;0.93;;
50517;SDS011;37075;44.084;2.962;2024-01-16T08:50:59;2.10;;;1.42;;
50517;SDS011;37075;44.084;2.962;2024-01-16T08:53:45;2.17;;;0.95;;
50517;SDS011;37075;44.084;2.962;2024-01-16T08:56:31;2.40;;;1.20;;
50517;SDS011;37075;44.084;2.962;2024-01-16T08:59:17;2.45;;;1.20;;
50517;SDS011;37075;44.084;2.962;2024-01-16T09:02:03;2.20;;;1.10;;
50517;SDS011;37075;44.084;2.962;2024-01-16T09:04:51;3.45;;;1.83;;
50517;SDS011;37075;44.084;2.962;2024-01-16T09:07:37;11.03;;;6.30;;
50517;SDS011;37075;44.084;2.962;2024-01-16T09:10:23;9.63;;;6.57;;
50517;SDS011;37075;44.084;2.962;2024-01-16T09:13:09;4.18;;;2.65;;
50517;SDS011;37075;44.084;2.962;2024-01-16T09:15:55;2.28;;;1.80;;
50517;SDS011;37075;44.084;2.962;2024-01-16T09:18:41;2.63;;;1.83;;
50517;SDS011;37075;44.084;2.962;2024-01-16T09:21:28;2.20;;;1.55;;
50517;SDS011;37075;44.084;2.962;2024-01-16T09:24:15;1.70;;;1.00;;
50517;SDS011;37075;44.084;2.962;2024-01-16T09:27:01;1.83;;;0.88;;
50517;SDS011;37075;44.084;2.962;2024-01-16T09:29:51;1.33;;;0.77;;
50517;SDS011;37075;44.084;2.962;2024-01-16T09:32:36;1.52;;;1.17;;
50517;SDS011;37075;44.084;2.962;2024-01-16T09:35:22;1.48;;;1.35;;
50517;SDS011;37075;44.084;2.962;2024-01-16T09:38:10;1.45;;;1.27;;
50517;SDS011;37075;44.084;2.962;2024-01-16T09:40:56;0.50;;;0.50;;
50517;SDS011;37075;44.084;2.962;2024-01-16T09:43:43;1.55;;;0.68;;
50517;SDS011;37075;44.084;2.962;2024-01-16T09:46:30;1.40;;;1.15;;
50517;SDS011;37075;44.084;2.962;2024-01-16T09:49:17;1.63;;;1.05;;
50517;SDS011;37075;44.084;2.962;2024-01-16T09:52:03;1.42;;;1.33;;
50517;SDS011;37075;44.084;2.962;2024-01-16T09:54:51;1.80;;;0.68;;
50517;SDS011;37075;44.084;2.962;2024-01-16T09:57:38;1.57;;;1.47;;
50517;SDS011;37075;44.084;2.962;2024-01-16T10:00:25;3.08;;;1.10;;
50517;SDS011;37075;44.084;2.962;2024-01-16T10:03:12;1.50;;;1.05;;
50517;SDS011;37075;44.084;2.962;2024-01-16T10:06:00;1.23;;;0.60;;
50517;SDS011;37075;44.084;2.962;2024-01-16T10:08:49;2.60;;;1.33;;
50517;SDS011;37075;44.084;2.962;2024-01-16T10:11:36;1.73;;;1.17;;
50517;SDS011;37075;44.084;2.962;2024-01-16T10:14:23;1.70;;;1.45;;
50517;SDS011;37075;44.084;2.962;2024-01-16T10:17:09;1.10;;;0.73;;
50517;SDS011;37075;44.084;2.962;2024-01-16T10:20:00;1.73;;;1.23;;
50517;SDS011;37075;44.084;2.962;2024-01-16T10:22:52;0.82;;;0.70;;
50517;SDS011;37075;44.084;2.962;2024-01-16T10:25:39;1.27;;;0.60;;
50517;SDS011;37075;44.084;2.962;2024-01-16T10:28:27;5.53;;;1.20;;
50517;SDS011;37075;44.084;2.962;2024-01-16T10:31:13;1.97;;;1.40;;
50517;SDS011;37075;44.084;2.962;2024-01-16T10:33:59;1.88;;;0.88;;
50517;SDS011;37075;44.084;2.962;2024-01-16T10:36:45;0.70;;;0.70;;
50517;SDS011;37075;44.084;2.962;2024-01-16T10:39:31;1.08;;;0.73;;
50517;SDS011;37075;44.084;2.962;2024-01-16T10:42:17;0.70;;;0.70;;
50517;SDS011;37075;44.084;2.962;2024-01-16T10:48:00;1.23;;;0.40;;
50517;SDS011;37075;44.084;2.962;2024-01-16T10:50:47;1.42;;;0.95;;
50517;SDS011;37075;44.084;2.962;2024-01-16T10:53:37;0.70;;;0.55;;
50517;SDS011;37075;44.084;2.962;2024-01-16T10:56:28;1.58;;;0.57;;
50517;SDS011;37075;44.084;2.962;2024-01-16T10:59:16;1.83;;;0.80;;
50517;SDS011;37075;44.084;2.962;2024-01-16T11:02:08;1.25;;;0.65;;
50517;SDS011;37075;44.084;2.962;2024-01-16T11:04:58;1.30;;;0.60;;
50517;SDS011;37075;44.084;2.962;2024-01-16T11:07:45;0.50;;;0.50;;
50517;SDS011;37075;44.084;2.962;2024-01-16T11:10:33;0.98;;;0.60;;
50517;SDS011;37075;44.084;2.962;2024-01-16T11:13:21;1.65;;;0.73;;
50517;SDS011;37075;44.084;2.962;2024-01-16T11:16:08;0.90;;;0.63;;
50517;SDS011;37075;44.084;2.962;2024-01-16T11:18:57;0.70;;;0.32;;
50517;SDS011;37075;44.084;2.962;2024-01-16T11:21:43;3.40;;;0.50;;
50517;SDS011;37075;44.084;2.962;2024-01-16T11:24:31;0.60;;;0.50;;
50517;SDS011;37075;44.084;2.962;2024-01-16T11:27:21;0.50;;;0.50;;
50517;SDS011;37075;44.084;2.962;2024-01-16T11:30:08;0.40;;;0.40;;
50517;SDS011;37075;44.084;2.962;2024-01-16T11:32:56;0.95;;;0.30;;
50517;SDS011;37075;44.084;2.962;2024-01-16T11:35:44;0.40;;;0.40;;
50517;SDS011;37075;44.084;2.962;2024-01-16T11:38:30;0.85;;;0.38;;
50517;SDS011;37075;44.084;2.962;2024-01-16T11:44:40;0.50;;;0.35;;
50517;SDS011;37075;44.084;2.962;2024-01-16T11:47:27;4.38;;;0.93;;
50517;SDS011;37075;44.084;2.962;2024-01-16T11:50:27;1.95;;;1.13;;
50517;SDS011;37075;44.084;2.962;2024-01-16T11:53:32;0.38;;;0.35;;
50517;SDS011;37075;44.084;2.962;2024-01-16T11:59:57;1.20;;;0.75;;
50517;SDS011;37075;44.084;2.962;2024-01-16T12:02:48;0.70;;;0.35;;
50517;SDS011;37075;44.084;2.962;2024-01-16T12:05:37;2.58;;;0.95;;
50517;SDS011;37075;44.084;2.962;2024-01-16T12:08:23;0.75;;;0.60;;
50517;SDS011;37075;44.084;2.962;2024-01-16T12:11:11;0.17;;;0.17;;
50517;SDS011;37075;44.084;2.962;2024-01-16T12:14:00;0.52;;;0.38;;
50517;SDS011;37075;44.084;2.962;2024-01-16T12:16:48;0.70;;;0.40;;
50517;SDS011;37075;44.084;2.962;2024-01-16T12:19:34;0.13;;;0.13;;
50517;SDS011;37075;44.084;2.962;2024-01-16T12:22:20;0.28;;;0.15;;
50517;SDS011;37075;44.084;2.962;2024-01-16T12:25:08;0.20;;;0.10;;
50517;SDS011;37075;44.084;2.962;2024-01-16T12:27:57;4.43;;;0.70;;
50517;SDS011;37075;44.084;2.962;2024-01-16T12:30:46;0.05;;;0.00;;
50517;SDS011;37075;44.084;2.962;2024-01-16T12:33:35;0.08;;;0.00;;
50517;SDS011;37075;44.084;2.962;2024-01-16T12:36:21;0.20;;;0.10;;
50517;SDS011;37075;44.084;2.962;2024-01-16T12:39:07;0.10;;;0.00;;
50517;SDS011;37075;44.084;2.962;2024-01-16T12:41:56;0.20;;;0.10;;
50517;SDS011;37075;44.084;2.962;2024-01-16T12:44:45;0.08;;;0.00;;
50517;SDS011;37075;44.084;2.962;2024-01-16T12:47:31;0.00;;;0.00;;
50517;SDS011;37075;44.084;2.962;2024-01-16T12:50:20;2.65;;;0.20;;
50517;SDS011;37075;44.084;2.962;2024-01-16T12:53:07;0.15;;;0.15;;
50517;SDS011;37075;44.084;2.962;2024-01-16T12:55:58;0.00;;;0.00;;
50517;SDS011;37075;44.084;2.962;2024-01-16T12:58:45;0.00;;;0.00;;
50517;SDS011;37075;44.084;2.962;2024-01-16T13:01:33;0.28;;;0.08;;
50517;SDS011;37075;44.084;2.962;2024-01-16T13:04:19;0.10;;;0.00;;
50517;SDS011;37075;44.084;2.962;2024-01-16T13:07:06;0.00;;;0.00;;
50517;SDS011;37075;44.084;2.962;2024-01-16T13:10:05;0.00;;;0.00;;
50517;SDS011;37075;44.084;2.962;2024-01-16T13:12:52;0.00;;;0.00;;
50517;SDS011;37075;44.084;2.962;2024-01-16T13:15:57;0.00;;;0.00;;
50517;SDS011;37075;44.084;2.962;2024-01-16T13:18:44;0.00;;;0.00;;
50517;SDS011;37075;44.084;2.962;2024-01-16T13:21:30;0.05;;;0.00;;
50517;SDS011;37075;44.084;2.962;2024-01-16T13:24:16;0.00;;;0.00;;
50517;SDS011;37075;44.084;2.962;2024-01-16T13:27:05;0.00;;;0.00;;
50517;SDS011;37075;44.084;2.962;2024-01-16T13:29:53;0.40;;;0.00;;
50517;SDS011;37075;44.084;2.962;2024-01-16T13:32:39;0.20;;;0.00;;
50517;SDS011;37075;44.084;2.962;2024-01-16T13:35:26;0.00;;;0.00;;
50517;SDS011;37075;44.084;2.962;2024-01-16T13:38:13;0.00;;;0.00;;
50517;SDS011;37075;44.084;2.962;2024-01-16T13:41:00;0.05;;;0.00;;
50517;SDS011;37075;44.084;2.962;2024-01-16T13:43:46;0.03;;;0.03;;
50517;SDS011;37075;44.084;2.962;2024-01-16T13:46:34;0.00;;;0.00;;
50517;SDS011;37075;44.084;2.962;2024-01-16T13:49:20;0.00;;;0.00;;
50517;SDS011;37075;44.084;2.962;2024-01-16T13:52:08;0.10;;;0.10;;
50517;SDS011;37075;44.084;2.962;2024-01-16T13:54:55;0.00;;;0.00;;
50517;SDS011;37075;44.084;2.962;2024-01-16T13:57:42;0.98;;;0.10;;
50517;SDS011;37075;44.084;2.962;2024-01-16T14:00:28;0.00;;;0.00;;
50517;SDS011;37075;44.084;2.962;2024-01-16T14:03:15;0.00;;;0.00;;
50517;SDS011;37075;44.084;2.962;2024-01-16T14:06:01;0.43;;;0.10;;
50517;SDS011;37075;44.084;2.962;2024-01-16T14:08:49;0.00;;;0.00;;
50517;SDS011;37075;44.084;2.962;2024-01-16T14:11:36;0.73;;;0.13;;
50517;SDS011;37075;44.084;2.962;2024-01-16T14:14:21;0.08;;;0.00;;
50517;SDS011;37075;44.084;2.962;2024-01-16T14:17:07;0.00;;;0.00;;
50517;SDS011;37075;44.084;2.962;2024-01-16T14:19:54;0.00;;;0.00;;
50517;SDS011;37075;44.084;2.962;2024-01-16T14:22:40;0.98;;;0.40;;
50517;SDS011;37075;44.084;2.962;2024-01-16T14:25:27;0.10;;;0.00;;
50517;SDS011;37075;44.084;2.962;2024-01-16T14:28:14;0.00;;;0.00;;
50517;SDS011;37075;44.084;2.962;2024-01-16T14:30:59;0.00;;;0.00;;
50517;SDS011;37075;44.084;2.962;2024-01-16T14:33:45;0.38;;;0.10;;
50517;SDS011;37075;44.084;2.962;2024-01-16T14:36:31;2.83;;;0.10;;
50517;SDS011;37075;44.084;2.962;2024-01-16T14:39:17;0.00;;;0.00;;
50517;SDS011;37075;44.084;2.962;2024-01-16T14:42:10;0.30;;;0.10;;
50517;SDS011;37075;44.084;2.962;2024-01-16T14:44:57;0.03;;;0.00;;
50517;SDS011;37075;44.084;2.962;2024-01-16T14:47:43;0.10;;;0.10;;
50517;SDS011;37075;44.084;2.962;2024-01-16T14:50:29;0.90;;;0.10;;
50517;SDS011;37075;44.084;2.962;2024-01-16T14:53:15;0.00;;;0.00;;
50517;SDS011;37075;44.084;2.962;2024-01-16T14:56:01;0.10;;;0.00;;
50517;SDS011;37075;44.084;2.962;2024-01-16T14:58:51;0.00;;;0.00;;
50517;SDS011;37075;44.084;2.962;2024-01-16T15:01:37;0.10;;;0.08;;
50517;SDS011;37075;44.084;2.962;2024-01-16T15:04:23;0.15;;;0.00;;
50517;SDS011;37075;44.084;2.962;2024-01-16T15:07:08;0.10;;;0.10;;
50517;SDS011;37075;44.084;2.962;2024-01-16T15:09:55;1.05;;;0.38;;
50517;SDS011;37075;44.084;2.962;2024-01-16T15:12:41;0.13;;;0.05;;
50517;SDS011;37075;44.084;2.962;2024-01-16T15:15:28;1.42;;;0.20;;
50517;SDS011;37075;44.084;2.962;2024-01-16T15:18:14;0.52;;;0.20;;
50517;SDS011;37075;44.084;2.962;2024-01-16T15:21:01;0.40;;;0.20;;
50517;SDS011;37075;44.084;2.962;2024-01-16T15:23:46;0.25;;;0.05;;
50517;SDS011;37075;44.084;2.962;2024-01-16T15:26:32;0.10;;;0.10;;
50517;SDS011;37075;44.084;2.962;2024-01-16T15:29:19;0.00;;;0.00;;
50517;SDS011;37075;44.084;2.962;2024-01-16T15:32:06;0.00;;;0.00;;
50517;SDS011;37075;44.084;2.962;2024-01-16T15:34:54;0.00;;;0.00;;
50517;SDS011;37075;44.084;2.962;2024-01-16T15:37:40;0.25;;;0.10;;
50517;SDS011;37075;44.084;2.962;2024-01-16T15:40:29;0.10;;;0.00;;
50517;SDS011;37075;44.084;2.962;2024-01-16T15:43:15;0.00;;;0.00;;
50517;SDS011;37075;44.084;2.962;2024-01-16T15:46:02;0.10;;;0.10;;
50517;SDS011;37075;44.084;2.962;2024-01-16T15:48:49;0.30;;;0.00;;
50517;SDS011;37075;44.084;2.962;2024-01-16T15:51:36;0.28;;;0.00;;
50517;SDS011;37075;44.084;2.962;2024-01-16T15:54:22;0.00;;;0.00;;
50517;SDS011;37075;44.084;2.962;2024-01-16T15:57:08;1.75;;;0.08;;
50517;SDS011;37075;44.084;2.962;2024-01-16T15:59:54;0.17;;;0.17;;
50517;SDS011;37075;44.084;2.962;2024-01-16T16:02:41;0.00;;;0.00;;
50517;SDS011;37075;44.084;2.962;2024-01-16T16:05:31;0.08;;;0.08;;
50517;SDS011;37075;44.084;2.962;2024-01-16T16:08:17;0.10;;;0.03;;
50517;SDS011;37075;44.084;2.962;2024-01-16T16:11:04;0.57;;;0.20;;
50517;SDS011;37075;44.084;2.962;2024-01-16T16:13:51;0.17;;;0.10;;
50517;SDS011;37075;44.084;2.962;2024-01-16T16:16:37;0.55;;;0.10;;
50517;SDS011;37075;44.084;2.962;2024-01-16T16:19:23;0.13;;;0.10;;
50517;SDS011;37075;44.084;2.962;2024-01-16T16:22:10;0.65;;;0.10;;
50517;SDS011;37075;44.084;2.962;2024-01-16T16:24:56;0.38;;;0.38;;
50517;SDS011;37075;44.084;2.962;2024-01-16T16:27:43;0.00;;;0.00;;
50517;SDS011;37075;44.084;2.962;2024-01-16T16:30:29;0.47;;;0.43;;
50517;SDS011;37075;44.084;2.962;2024-01-16T16:33:15;1.05;;;0.20;;
50517;SDS011;37075;44.084;2.962;2024-01-16T16:36:01;0.10;;;0.10;;
50517;SDS011;37075;44.084;2.962;2024-01-16T16:38:50;0.10;;;0.10;;
50517;SDS011;37075;44.084;2.962;2024-01-16T16:41:36;0.10;;;0.05;;
50517;SDS011;37075;44.084;2.962;2024-01-16T16:44:25;0.10;;;0.10;;
50517;SDS011;37075;44.084;2.962;2024-01-16T16:47:11;4.63;;;1.55;;
50517;SDS011;37075;44.084;2.962;2024-01-16T16:49:59;3.72;;;2.45;;
50517;SDS011;37075;44.084;2.962;2024-01-16T16:52:45;5.75;;;1.77;;
50517;SDS011;37075;44.084;2.962;2024-01-16T16:55:33;2.90;;;0.88;;